Time;durP1;ratioP1;P1;durP2;ratioP2;P2;SDS_P1;SDS_P2;PMS_P1;PMS_P2;Temp;Humidity;BMP_temperature;BMP_pressure;BME280_temperature;BME280_humidity;BME280_pressure;Samples;Min_cycle;Max_cycle;Signal;HPM_P1;HPM_P2
2022/11/08 00:02:21;;;;;;;;;;;;;;;19.60;68.45;101449.16;7413274;19;1451;-89
2022/11/08 00:04:51;;;;;;;;;;;;;;;19.61;68.76;101458.88;7412058;19;1822;-90
2022/11/08 00:15:24;;;;;;;;;;;;;;;19.58;68.57;101457.31;7413510;19;1402;-91
2022/11/08 00:17:53;;;;;;;;;;;;;;;19.58;68.47;101451.94;7410481;19;1906;-91
2022/11/08 00:20:22;;;;;;;;;;;;;;;19.60;68.62;101457.19;7433681;19;1430;-90
2022/11/08 00:22:51;;;;;;;;;;;;;;;19.58;68.76;101460.00;7417062;19;1507;-90
2022/11/08 00:25:20;;;;;;;;;;;;;;;19.53;68.52;101446.09;7409666;19;1858;-91
2022/11/08 00:27:49;;;;;;;;;;;;;;;19.57;68.48;101457.44;7409840;19;1079;-90
2022/11/08 00:30:17;;;;;;;;;;;;;;;19.54;68.68;101436.22;7408041;19;1724;-91
2022/11/08 00:32:49;;;;;;;;;;;;;;;19.58;68.26;101437.69;7410593;19;1504;-91
2022/11/08 00:35:17;;;;;;;;;;;;;;;19.56;68.21;101450.38;7408714;19;1398;-89
2022/11/08 00:37:47;;;;;;;;;;;;;;;19.58;68.59;101459.16;7410937;19;1712;-91
2022/11/08 00:40:17;;;;;;;;;;;;;;;19.54;68.23;101450.50;7409360;19;1041;-90
2022/11/08 00:42:45;;;;;;;;;;;;;;;19.58;68.16;101453.78;7412517;19;1710;-90
2022/11/08 00:45:13;;;;;;;;;;;;;;;19.54;68.47;101436.22;7407970;19;1782;-90
2022/11/08 00:47:41;;;;;;;;;;;;;;;19.52;68.29;101446.19;7406173;19;1385;-89
2022/11/08 00:50:12;;;;;;;;;;;;;;;19.54;68.23;101444.28;7409685;19;1524;-89
2022/11/08 00:52:47;;;;;;;;;;;;;;;19.50;68.52;101430.25;7410116;19;1693;-90
2022/11/08 00:55:21;;;;;;;;;;;;;;;19.51;68.08;101437.31;7408439;19;1599;-89
2022/11/08 00:57:52;;;;;;;;;;;;;;;19.53;68.23;101434.50;7409207;19;957;-90
2022/11/08 01:00:21;;;;;;;;;;;;;;;19.52;68.29;101419.38;7407477;19;3420;-39
2022/11/08 01:03:17;;;;;;;;;;;;;;;19.54;68.52;101433.53;7400373;19;1421;-38
2022/11/08 01:05:41;;;;;;;;;;;;;;;19.54;67.94;101434.38;7400488;19;1854;-38
2022/11/08 01:08:09;;;;;;;;;;;;;;;19.55;68.43;101432.56;7401136;19;1462;-40
2022/11/08 01:10:38;;;;;;;;;;;;;;;19.54;68.25;101436.22;7401709;19;1757;-38
2022/11/08 01:13:06;;;;;;;;;;;;;;;19.53;68.14;101437.19;7402785;19;1591;-40
2022/11/08 01:15:36;;;;;;;;;;;;;;;19.50;68.13;101427.56;7403646;19;1004;-38
2022/11/08 01:18:04;;;;;;;;;;;;;;;19.50;68.49;101418.66;7403397;19;1695;-38
2022/11/08 01:20:32;;;;;;;;;;;;;;;19.51;68.12;101437.31;7400668;19;1944;-39
2022/11/08 01:23:03;;;;;;;;;;;;;;;19.51;68.28;101439.16;7401226;19;1606;-38
2022/11/08 01:25:31;;;;;;;;;;;;;;;19.52;68.11;101438.16;7402572;19;1925;-38
2022/11/08 01:27:59;;;;;;;;;;;;;;;19.53;67.95;101439.88;7402888;19;1896;-38
2022/11/08 01:30:27;;;;;;;;;;;;;;;19.50;68.18;101429.38;7402511;19;1895;-39
2022/11/08 01:32:56;;;;;;;;;;;;;;;19.53;68.18;101445.25;7402870;19;1455;-39
2022/11/08 01:35:24;;;;;;;;;;;;;;;19.50;67.91;101438.28;7400122;19;1500;-38
2022/11/08 01:37:52;;;;;;;;;;;;;;;19.48;68.15;101433.03;7402753;19;1807;-39
2022/11/08 01:40:23;;;;;;;;;;;;;;;19.46;68.18;101434.16;7401650;19;1861;-38
2022/11/08 01:42:51;;;;;;;;;;;;;;;19.48;68.12;101437.56;7402140;19;1480;-38
2022/11/08 01:45:34;;;;;;;;;;;;;;;19.46;68.10;101426.94;7402941;19;1653;-39
2022/11/08 01:48:03;;;;;;;;;;;;;;;19.48;68.06;101438.41;7401404;19;1365;-38
2022/11/08 01:50:31;;;;;;;;;;;;;;;19.47;67.94;101430.47;7400077;19;1727;-38
2022/11/08 01:52:59;;;;;;;;;;;;;;;19.46;68.02;101443.03;7400737;19;1810;-38
2022/11/08 01:55:33;;;;;;;;;;;;;;;19.48;68.01;101427.69;7400002;19;1532;-39
2022/11/08 01:58:04;;;;;;;;;;;;;;;19.48;68.00;101432.19;7401297;19;1735;-38
2022/11/08 02:00:32;;;;;;;;;;;;;;;19.48;68.25;101421.47;7400968;19;1598;-38
2022/11/08 02:03:01;;;;;;;;;;;;;;;19.48;67.90;101422.31;7401304;19;1541;-38
2022/11/08 02:05:31;;;;;;;;;;;;;;;19.47;68.08;101433.16;7399215;19;1934;-39
2022/11/08 02:08:02;;;;;;;;;;;;;;;19.45;67.94;101438.63;7398190;19;1960;-38
2022/11/08 02:10:35;;;;;;;;;;;;;;;19.45;68.04;101435.97;7401744;19;1510;-39
2022/11/08 02:13:03;;;;;;;;;;;;;;;19.43;68.01;101434.38;7401575;19;1693;-39
2022/11/08 02:15:32;;;;;;;;;;;;;;;19.43;67.76;101413.78;7401365;19;1951;-38
2022/11/08 02:18:00;;;;;;;;;;;;;;;19.46;67.84;101426.94;7402464;19;1434;-38
2022/11/08 02:20:28;;;;;;;;;;;;;;;19.45;67.74;101427.91;7399290;19;1722;-38
2022/11/08 02:23:00;;;;;;;;;;;;;;;19.44;68.09;101426.22;7399149;19;1650;-38
2022/11/08 02:25:31;;;;;;;;;;;;;;;19.45;67.74;101427.91;7401192;19;1390;-38
2022/11/08 02:27:59;;;;;;;;;;;;;;;19.44;67.65;101433.41;7399232;19;1849;-38
2022/11/08 02:30:33;;;;;;;;;;;;;;;19.44;67.86;101436.94;7400706;19;1603;-38
2022/11/08 02:33:01;;;;;;;;;;;;;;;19.41;67.71;101423.78;7401776;19;1430;-38
2022/11/08 02:35:30;;;;;;;;;;;;;;;19.43;67.81;101435.22;7398444;19;1831;-39
2022/11/08 02:37:58;;;;;;;;;;;;;;;19.41;67.81;101415.72;7399098;19;2010;-38
2022/11/08 02:40:26;;;;;;;;;;;;;;;19.39;67.88;101423.03;7400826;19;1783;-39
2022/11/08 02:42:57;;;;;;;;;;;;;;;19.44;68.05;101418.19;7400535;19;1829;-38
2022/11/08 02:45:25;;;;;;;;;;;;;;;19.42;67.88;101428.16;7400983;19;1787;-39
2022/11/08 02:47:53;;;;;;;;;;;;;;;19.44;67.74;101425.38;7399027;19;1865;-38
2022/11/08 02:50:22;;;;;;;;;;;;;;;19.42;67.70;101421.97;7397942;19;2129;-39
2022/11/08 02:52:50;;;;;;;;;;;;;;;19.41;67.95;101421.09;7400735;19;1402;-38
2022/11/08 02:55:18;;;;;;;;;;;;;;;19.43;67.75;101432.53;7400268;19;1655;-39
2022/11/08 02:57:46;;;;;;;;;;;;;;;19.42;67.90;101421.97;7399999;19;1831;-38
2022/11/08 03:02:53;;;;;;;;;;;;;;;19.43;67.97;101426.34;7396211;19;1687;-68
2022/11/08 03:05:21;;;;;;;;;;;;;;;19.39;67.77;101416.81;7403865;19;1732;-68
2022/11/08 03:07:50;;;;;;;;;;;;;;;19.40;67.38;101424.75;7405027;19;1853;-68
2022/11/08 03:10:19;;;;;;;;;;;;;;;19.41;67.79;101430.97;7410291;19;1517;-62
2022/11/08 03:12:47;;;;;;;;;;;;;;;19.39;67.41;101416.81;7410851;19;1500;-62
2022/11/08 03:15:16;;;;;;;;;;;;;;;19.38;67.54;101436.59;7410477;19;1583;-62
2022/11/08 03:17:44;;;;;;;;;;;;;;;19.39;67.49;101428.41;7409723;19;1374;-62
2022/11/08 03:20:15;;;;;;;;;;;;;;;19.41;67.66;101429.13;7409986;19;1311;-62
2022/11/08 03:22:43;;;;;;;;;;;;;;;19.37;67.73;101430.34;7411592;19;991;-62
2022/11/08 03:25:12;;;;;;;;;;;;;;;19.35;67.45;101435.00;7410266;19;1493;-62
2022/11/08 03:27:40;;;;;;;;;;;;;;;19.37;67.33;101435.72;7408403;19;1849;-62
2022/11/08 03:30:09;;;;;;;;;;;;;;;19.34;67.76;101433.28;7409770;19;1625;-62
2022/11/08 03:32:38;;;;;;;;;;;;;;;19.38;67.40;101434.75;7409760;19;1340;-62
2022/11/08 03:35:07;;;;;;;;;;;;;;;19.39;67.57;101430.25;7409422;19;1527;-62
2022/11/08 03:37:37;;;;;;;;;;;;;;;19.40;67.66;101431.97;7408780;19;1905;-62
2022/11/08 03:40:06;;;;;;;;;;;;;;;19.34;67.50;101435.97;7409420;19;1468;-62
2022/11/08 03:42:35;;;;;;;;;;;;;;;19.36;67.58;101450.13;7409540;19;1433;-62
2022/11/08 03:45:03;;;;;;;;;;;;;;;19.36;67.24;101455.47;7410426;19;1276;-62
2022/11/08 03:47:32;;;;;;;;;;;;;;;19.36;67.61;101442.06;7408891;19;1850;-62
2022/11/08 03:50:00;;;;;;;;;;;;;;;19.33;67.53;101434.25;7406197;19;1683;-62
2022/11/08 03:52:28;;;;;;;;;;;;;;;19.36;67.59;101455.47;7409291;19;1488;-62
2022/11/08 03:54:59;;;;;;;;;;;;;;;19.37;67.49;101441.09;7409490;19;1922;-62
2022/11/08 03:57:28;;;;;;;;;;;;;;;19.36;67.66;101430.47;7409330;19;1346;-62
2022/11/08 03:59:56;;;;;;;;;;;;;;;19.35;67.74;101448.41;7409480;19;1240;-62
2022/11/08 04:02:24;;;;;;;;;;;;;;;19.34;67.54;101435.97;7406961;19;1752;-62
2022/11/08 04:04:53;;;;;;;;;;;;;;;19.36;67.43;101431.34;7405988;19;1740;-62
2022/11/08 04:07:21;;;;;;;;;;;;;;;19.34;67.09;101441.34;7408096;19;1857;-62
2022/11/08 04:09:49;;;;;;;;;;;;;;;19.33;67.49;101434.25;7408831;19;1481;-62
2022/11/08 04:23:06;;;;;;;;;;;;;;;19.34;67.16;101435.09;7408793;19;1542;-62
2022/11/08 04:25:34;;;;;;;;;;;;;;;19.32;67.44;101426.31;7406324;19;1303;-62
2022/11/08 04:28:05;;;;;;;;;;;;;;;19.34;67.60;101419.00;7406435;19;1850;-62
2022/11/08 04:30:34;;;;;;;;;;;;;;;19.37;67.56;101425.00;7407659;19;1283;-62
2022/11/08 04:33:03;;;;;;;;;;;;;;;19.34;67.38;101425.25;7408145;19;1131;-62
2022/11/08 04:35:32;;;;;;;;;;;;;;;19.32;67.44;101424.53;7405745;19;1634;-62
2022/11/08 04:38:01;;;;;;;;;;;;;;;19.29;67.22;101408.66;7406661;19;1614;-62
2022/11/08 04:40:29;;;;;;;;;;;;;;;19.32;67.39;101427.19;7408319;19;1531;-62
2022/11/08 04:42:58;;;;;;;;;;;;;;;19.30;67.50;101428.28;7407759;19;1430;-62
2022/11/08 04:45:29;;;;;;;;;;;;;;;19.33;67.24;101434.25;7407281;19;1488;-62
2022/11/08 04:47:57;;;;;;;;;;;;;;;19.27;67.33;101430.22;7407525;19;1864;-62
2022/11/08 04:50:25;;;;;;;;;;;;;;;19.29;67.52;101438.16;7405592;19;1453;-62
2022/11/08 04:52:54;;;;;;;;;;;;;;;19.28;67.23;101426.59;7407629;19;1625;-62
2022/11/08 04:55:23;;;;;;;;;;;;;;;19.29;67.25;101422.06;7407696;19;1610;-62
2022/11/08 04:57:51;;;;;;;;;;;;;;;19.28;67.30;101431.09;7407099;19;1339;-62
2022/11/08 05:00:20;;;;;;;;;;;;;;;19.28;67.29;101434.63;7406754;19;1283;-62
2022/11/08 05:02:51;;;;;;;;;;;;;;;19.33;67.38;101442.31;7404774;19;1429;-62
2022/11/08 05:05:20;;;;;;;;;;;;;;;19.29;67.38;101446.19;7403348;19;1567;-62
2022/11/08 05:07:48;;;;;;;;;;;;;;;19.28;66.65;101449.88;7403986;19;1852;-62
2022/11/08 05:10:17;;;;;;;;;;;;;;;19.24;67.19;101451.94;7404527;19;1429;-62
2022/11/08 05:12:45;;;;;;;;;;;;;;;19.28;66.48;101458.75;7404376;19;1445;-62
2022/11/08 05:15:13;;;;;;;;;;;;;;;19.24;66.28;101468.03;7407754;19;1007;-61
2022/11/08 05:17:42;;;;;;;;;;;;;;;19.26;66.76;101474.13;7405646;19;1489;-62
2022/11/08 05:25:34;;;;;;;;;;;;;;;19.21;66.31;101462.03;7408721;19;845;-62
2022/11/08 05:28:03;;;;;;;;;;;;;;;19.22;66.08;101463.75;7404355;19;1868;-62
2022/11/08 05:30:31;;;;;;;;;;;;;;;19.21;66.02;101478.13;7405455;19;1417;-62
2022/11/08 05:32:59;;;;;;;;;;;;;;;19.20;65.92;101465.69;7405490;19;1318;-62
2022/11/08 05:35:30;;;;;;;;;;;;;;;19.18;66.15;101470.31;7404996;19;1903;-62
2022/11/08 05:37:58;;;;;;;;;;;;;;;19.18;65.90;101467.63;7404784;19;1606;-62
2022/11/08 05:40:27;;;;;;;;;;;;;;;19.19;65.76;101475.56;7405929;19;1542;-62
2022/11/08 05:42:55;;;;;;;;;;;;;;;19.18;65.96;101478.34;7404593;19;1332;-62
2022/11/08 05:45:24;;;;;;;;;;;;;;;19.18;65.80;101498.00;7405502;19;1583;-62
2022/11/08 05:47:53;;;;;;;;;;;;;;;19.15;65.57;101497.38;7403593;19;1850;-62
2022/11/08 05:50:21;;;;;;;;;;;;;;;19.17;65.72;101477.50;7403241;19;1639;-62
2022/11/08 05:52:55;;;;;;;;;;;;;;;19.18;65.64;101500.69;7405561;19;1621;-62
2022/11/08 05:55:23;;;;;;;;;;;;;;;19.19;65.58;101477.41;7405101;19;1217;-62
2022/11/08 05:57:51;;;;;;;;;;;;;;;19.26;65.44;101497.41;7401431;19;1231;-62
2022/11/08 06:00:20;;;;;;;;;;;;;;;19.21;65.72;101487.03;7402356;19;1348;-62
2022/11/08 06:02:48;;;;;;;;;;;;;;;19.22;65.67;101499.47;7401831;19;1535;-62
2022/11/08 06:05:17;;;;;;;;;;;;;;;19.19;65.65;101486.28;7402402;19;2069;-65
2022/11/08 06:07:45;;;;;;;;;;;;;;;19.24;65.39;101489.47;7402112;19;1855;-69
2022/11/08 06:10:16;;;;;;;;;;;;;;;19.29;65.71;101489.09;7402196;19;1626;-63
2022/11/08 06:12:44;;;;;;;;;;;;;;;19.35;67.95;101490.47;7400829;19;1362;-65
2022/11/08 06:15:13;;;;;;;;;;;;;;;19.43;66.86;101496.06;7402222;19;1282;-62
2022/11/08 06:17:41;;;;;;;;;;;;;;;19.42;66.97;101503.28;7400063;19;1260;-61
2022/11/08 06:20:11;;;;;;;;;;;;;;;19.44;67.45;101514.75;7398701;19;1398;-66
2022/11/08 06:22:40;;;;;;;;;;;;;;;19.52;67.92;101505.22;7396486;19;1435;-64
2022/11/08 06:25:08;;;;;;;;;;;;;;;19.58;68.11;101512.81;7401459;19;1172;-62
2022/11/08 06:27:39;;;;;;;;;;;;;;;19.01;68.53;101386.72;7397233;19;1856;-66
2022/11/08 06:30:09;;;;;;;;;;;;;;;19.61;67.60;101512.53;7403122;19;1231;-64
2022/11/08 06:32:37;;;;;;;;;;;;;;;19.58;68.17;101518.16;7400626;19;1322;-64
2022/11/08 06:35:05;;;;;;;;;;;;;;;19.70;70.74;101522.56;7399315;19;1414;-63
2022/11/08 06:37:34;;;;;;;;;;;;;;;19.70;70.86;101522.56;7400852;19;1273;-62
2022/11/08 06:40:02;;;;;;;;;;;;;;;19.72;71.12;101515.28;7398931;19;1320;-62
2022/11/08 06:42:30;;;;;;;;;;;;;;;19.78;71.28;101520.16;7392865;19;1286;-63
2022/11/08 06:45:01;;;;;;;;;;;;;;;19.75;73.01;101506.97;7406549;19;1259;-62
2022/11/08 06:47:30;;;;;;;;;;;;;;;19.86;72.75;101522.22;7409428;19;1864;-62
2022/11/08 06:49:58;;;;;;;;;;;;;;;19.84;72.90;101516.97;7406202;19;1283;-64
2022/11/08 06:52:26;;;;;;;;;;;;;;;19.84;70.74;101516.97;7409435;19;1398;-61
2022/11/08 06:54:58;;;;;;;;;;;;;;;19.88;72.74;101517.59;7407200;19;1316;-61
2022/11/08 06:57:26;;;;;;;;;;;;;;;19.94;71.72;101502.81;7403136;19;1270;-63
2022/11/08 06:59:54;;;;;;;;;;;;;;;19.91;70.49;101519.16;7405278;19;1106;-62
2022/11/08 07:02:25;;;;;;;;;;;;;;;19.99;72.64;101525.59;7408536;19;1792;-65
2022/11/08 07:04:54;;;;;;;;;;;;;;;19.89;71.35;101516.59;7406561;19;1303;-62
2022/11/08 07:07:22;;;;;;;;;;;;;;;19.93;73.07;101506.47;7406870;19;1877;-62
2022/11/08 07:09:50;;;;;;;;;;;;;;;19.95;71.59;101509.88;7409822;19;1245;-60
2022/11/08 07:12:18;;;;;;;;;;;;;;;20.01;71.63;101502.19;7408369;19;1071;-68
2022/11/08 07:14:47;;;;;;;;;;;;;;;19.98;71.99;101510.50;7407830;19;1647;-60
2022/11/08 07:17:15;;;;;;;;;;;;;;;19.90;72.78;101523.69;7408374;19;1393;-62
2022/11/08 07:19:46;;;;;;;;;;;;;;;19.85;72.89;101497.19;7407699;19;1262;-61
2022/11/08 07:22:14;;;;;;;;;;;;;;;19.77;73.14;101507.69;7408875;19;1270;-60
2022/11/08 07:24:43;;;;;;;;;;;;;;;19.77;72.96;101515.75;7410098;19;1130;-61
2022/11/08 07:27:11;;;;;;;;;;;;;;;19.72;72.83;101495.66;7408822;19;1086;-59
2022/11/08 07:29:39;;;;;;;;;;;;;;;19.73;71.82;101500.88;7406026;19;1873;-60
2022/11/08 07:32:08;;;;;;;;;;;;;;;19.79;72.38;101499.53;7408493;19;1441;-60
2022/11/08 07:34:36;;;;;;;;;;;;;;;19.82;72.34;101494.78;7406707;19;1178;-60
2022/11/08 07:37:07;;;;;;;;;;;;;;;19.75;72.73;101508.81;7409144;19;1468;-59
2022/11/08 07:39:35;;;;;;;;;;;;;;;19.77;72.21;101509.53;7408981;19;1894;-60
2022/11/08 07:42:03;;;;;;;;;;;;;;;19.78;72.24;101511.25;7288212;19;15296;-59
2022/11/08 07:44:32;;;;;;;;;;;;;;;19.87;72.10;101502.44;7402956;19;1416;-59
2022/11/08 07:47:00;;;;;;;;;;;;;;;19.84;72.04;101514.28;7403596;19;1230;-60
2022/11/08 07:49:28;;;;;;;;;;;;;;;19.86;71.95;101517.69;7406237;19;1854;-60
2022/11/08 07:51:56;;;;;;;;;;;;;;;19.90;71.72;101507.59;7407876;19;1083;-60
2022/11/08 07:54:27;;;;;;;;;;;;;;;19.89;71.54;101507.69;7296617;19;14197;-61
2022/11/08 07:56:56;;;;;;;;;;;;;;;19.90;72.45;101502.22;7408451;19;1205;-62
2022/11/08 07:59:24;;;;;;;;;;;;;;;19.88;71.66;101508.69;7407173;19;1637;-62
2022/11/08 08:01:52;;;;;;;;;;;;;;;19.96;71.62;101511.59;7406372;19;1622;-62
2022/11/08 08:04:21;;;;;;;;;;;;;;;19.88;71.46;101495.28;7408046;19;980;-62
2022/11/08 08:06:49;;;;;;;;;;;;;;;19.85;71.68;101489.13;7407876;19;1685;-62
2022/11/08 08:09:17;;;;;;;;;;;;;;;19.89;71.64;101519.28;7405867;19;1846;-63
2022/11/08 08:11:48;;;;;;;;;;;;;;;19.96;73.19;101508.94;7407284;19;1764;-61
2022/11/08 08:14:17;;;;;;;;;;;;;;;19.98;74.01;101504.28;7406819;19;1477;-65
2022/11/08 08:16:45;;;;;;;;;;;;;;;19.95;72.82;101491.09;7407050;19;1405;-65
2022/11/08 08:19:13;;;;;;;;;;;;;;;19.94;73.54;101505.50;7407480;19;1079;-65
2022/11/08 08:21:42;;;;;;;;;;;;;;;19.89;70.07;101494.28;7408074;19;1678;-62
2022/11/08 08:24:10;;;;;;;;;;;;;;;19.94;72.30;101502.81;7406426;19;1489;-63
2022/11/08 08:26:39;;;;;;;;;;;;;;;19.92;72.85;101512.84;7406058;19;1702;-69
2022/11/08 08:29:09;;;;;;;;;;;;;;;19.92;72.09;101526.25;7403489;19;1881;-62
2022/11/08 08:31:38;;;;;;;;;;;;;;;19.93;71.98;101507.31;7406230;19;1599;-69
2022/11/08 08:34:07;;;;;;;;;;;;;;;19.96;72.36;101504.41;7406490;19;1004;-70
2022/11/08 08:36:35;;;;;;;;;;;;;;;20.01;72.97;101509.38;7404531;19;1626;-69
2022/11/08 08:39:03;;;;;;;;;;;;;;;20.05;73.12;101513.53;7399020;19;1337;-66
2022/11/08 08:41:31;;;;;;;;;;;;;;;20.06;73.37;101499.16;7405781;19;1339;-67
2022/11/08 08:44:01;;;;;;;;;;;;;;;20.05;73.18;101502.78;7404968;19;1637;-72
2022/11/08 08:46:32;;;;;;;;;;;;;;;20.10;73.11;101508.66;7404754;19;1455;-67
2022/11/08 08:49:00;;;;;;;;;;;;;;;20.16;73.18;101513.53;7404802;19;1849;-75
2022/11/08 08:51:28;;;;;;;;;;;;;;;20.15;72.65;101506.44;7405845;19;1712;-69
2022/11/08 08:53:57;;;;;;;;;;;;;;;20.19;72.41;101505.22;7404898;19;1732;-69
2022/11/08 08:56:25;;;;;;;;;;;;;;;20.17;72.57;101512.53;7404295;19;1547;-66
2022/11/08 08:58:53;;;;;;;;;;;;;;;20.15;72.76;101511.78;7404570;19;1441;-67
2022/11/08 09:01:21;;;;;;;;;;;;;;;20.23;72.51;101500.44;7402195;19;1799;-64
2022/11/08 09:03:52;;;;;;;;;;;;;;;20.27;72.67;101534.13;7403891;19;1310;-70
2022/11/08 09:06:21;;;;;;;;;;;;;;;20.17;72.80;101509.84;7404463;19;1717;-70
2022/11/08 09:08:49;;;;;;;;;;;;;;;20.23;72.94;101508.50;7403851;19;1853;-70
2022/11/08 09:14:13;;;;;;;;;;;;;;;20.12;72.88;101498.63;7403008;19;1282;-65
2022/11/08 09:16:41;;;;;;;;;;;;;;;20.13;73.36;101503.00;7402602;19;1360;-70
2022/11/08 09:19:12;;;;;;;;;;;;;;;20.31;73.63;101513.25;7404432;19;1461;-65
2022/11/08 09:21:41;;;;;;;;;;;;;;;20.28;71.30;101490.19;7404330;19;1658;-64
2022/11/08 09:24:09;;;;;;;;;;;;;;;20.23;71.24;101487.00;7401667;19;1382;-68
2022/11/08 09:26:37;;;;;;;;;;;;;;;20.16;70.54;101478.59;7404428;19;1271;-69
2022/11/08 09:29:06;;;;;;;;;;;;;;;20.21;70.25;101499.72;7403335;19;1853;-66
2022/11/08 09:31:34;;;;;;;;;;;;;;;20.09;70.09;101520.34;7402570;19;1586;-69
2022/11/08 09:34:03;;;;;;;;;;;;;;;20.15;70.31;101501.06;7403291;19;1525;-67
2022/11/08 09:36:34;;;;;;;;;;;;;;;20.13;69.93;101500.31;7400350;19;1587;-66
2022/11/08 09:39:02;;;;;;;;;;;;;;;20.13;70.56;101491.44;7403387;19;1655;-65
2022/11/08 09:41:57;;;;;;;;;;;;;;;20.09;70.35;101490.81;7403958;19;1346;-65
2022/11/08 09:44:38;;;;;;;;;;;;;;;20.08;70.22;101472.19;7400346;19;1536;-66
2022/11/08 09:47:11;;;;;;;;;;;;;;;20.08;70.27;101482.91;7403066;19;1748;-64
2022/11/08 09:49:42;;;;;;;;;;;;;;;20.09;70.71;101484.59;7398673;19;1867;-65
2022/11/08 09:52:16;;;;;;;;;;;;;;;20.13;70.63;101492.28;7403482;19;1299;-65
2022/11/08 09:54:46;;;;;;;;;;;;;;;20.14;70.64;101483.25;7404274;19;1032;-65
2022/11/08 09:57:22;;;;;;;;;;;;;;;20.16;71.20;101485.81;7402922;19;1028;-65
2022/11/08 09:59:52;;;;;;;;;;;;;;;20.17;70.77;101488.34;7404040;19;1760;-65
2022/11/08 10:02:21;;;;;;;;;;;;;;;20.15;70.78;101466.16;7401066;19;1462;-65
2022/11/08 10:04:53;;;;;;;;;;;;;;;20.13;70.87;101460.06;7400143;19;1442;-67
2022/11/08 10:07:30;;;;;;;;;;;;;;;20.19;70.62;101461.38;7401481;19;1422;-68
2022/11/08 10:10:16;;;;;;;;;;;;;;;20.24;70.52;101467.25;7397040;19;1863;-68
2022/11/08 10:12:48;;;;;;;;;;;;;;;20.18;70.64;101457.84;7402281;19;1279;-67
2022/11/08 10:15:22;;;;;;;;;;;;;;;20.17;71.04;101460.66;7402329;19;1283;-67
2022/11/08 10:18:13;;;;;;;;;;;;;;;20.05;70.55;101463.38;7400871;19;1363;-68
2022/11/08 10:20:48;;;;;;;;;;;;;;;20.06;70.66;101470.44;7403101;19;1497;-69
2022/11/08 10:23:23;;;;;;;;;;;;;;;20.09;69.56;101458.59;7401313;19;1518;-63
2022/11/08 10:25:54;;;;;;;;;;;;;;;20.13;69.10;101446.63;7400901;19;1566;-64
2022/11/08 10:28:24;;;;;;;;;;;;;;;20.14;70.02;101442.97;7400974;19;1373;-64
2022/11/08 10:30:54;;;;;;;;;;;;;;;20.15;69.64;101455.41;7401779;19;1294;-71
2022/11/08 10:33:25;;;;;;;;;;;;;;;20.15;69.82;101452.72;7402366;19;1295;-66
2022/11/08 10:35:58;;;;;;;;;;;;;;;20.19;69.32;101454.19;7399990;19;1753;-63
2022/11/08 10:38:33;;;;;;;;;;;;;;;20.18;69.47;101460.53;7401810;19;1204;-65
2022/11/08 10:41:04;;;;;;;;;;;;;;;20.23;69.71;101461.03;7402576;19;1374;-64
2022/11/08 10:43:35;;;;;;;;;;;;;;;20.26;69.40;101466.13;7401092;19;1338;-63
2022/11/08 10:46:03;;;;;;;;;;;;;;;20.16;70.67;101453.59;7400006;19;1295;-64
2022/11/08 10:48:37;;;;;;;;;;;;;;;20.23;70.21;101444.03;7401811;19;1870;-66
2022/11/08 10:51:06;;;;;;;;;;;;;;;20.24;70.33;101433.16;7399971;19;1462;-63
2022/11/08 10:53:44;;;;;;;;;;;;;;;20.25;69.86;101442.94;7401498;19;1626;-63
2022/11/08 10:56:13;;;;;;;;;;;;;;;20.28;69.31;101449.91;7400228;19;1484;-64
2022/11/08 10:58:43;;;;;;;;;;;;;;;20.23;69.86;101436.84;7398776;19;1512;-68
2022/11/08 11:01:16;;;;;;;;;;;;;;;20.25;70.03;101447.44;7399586;19;1436;-68
2022/11/08 11:03:45;;;;;;;;;;;;;;;20.17;70.40;101431.13;7401246;19;1113;-68
2022/11/08 11:06:26;;;;;;;;;;;;;;;20.08;70.70;101440.81;7401039;19;1454;-68
2022/11/08 11:08:59;;;;;;;;;;;;;;;20.11;70.71;101445.06;7395744;19;1822;-65
2022/11/08 11:11:29;;;;;;;;;;;;;;;20.02;70.95;101446.69;7398986;19;1259;-68
2022/11/08 11:14:07;;;;;;;;;;;;;;;19.98;70.71;101429.97;7399564;19;1396;-68
2022/11/08 11:16:37;;;;;;;;;;;;;;;19.94;71.14;101438.41;7399904;19;1357;-70
2022/11/08 11:19:06;;;;;;;;;;;;;;;20.11;70.79;101451.28;7401068;19;1133;-72
2022/11/08 11:21:38;;;;;;;;;;;;;;;20.15;70.93;101435.75;7400339;19;1646;-73
2022/11/08 11:24:13;;;;;;;;;;;;;;;20.10;70.99;101427.25;7399732;19;1664;-71
2022/11/08 11:26:43;;;;;;;;;;;;;;;20.17;70.61;101437.34;7400505;19;1553;-67
2022/11/08 11:29:30;;;;;;;;;;;;;;;20.14;70.75;101429.56;7404334;19;1852;-64
2022/11/08 11:31:59;;;;;;;;;;;;;;;20.14;70.69;101437.59;7405111;19;1433;-67
2022/11/08 11:34:42;;;;;;;;;;;;;;;20.18;70.68;101428.31;7406057;19;1568;-65
2022/11/08 11:37:16;;;;;;;;;;;;;;;20.21;71.11;101433.44;7404209;19;1415;-69
2022/11/08 11:39:51;;;;;;;;;;;;;;;20.19;70.68;101438.09;7407227;19;1214;-70
2022/11/08 11:42:24;;;;;;;;;;;;;;;20.14;70.25;101426.88;7406410;19;1572;-67
2022/11/08 11:44:59;;;;;;;;;;;;;;;20.13;70.04;101424.31;7405973;19;1282;-70
2022/11/08 11:47:31;;;;;;;;;;;;;;;20.17;69.62;101417.69;7407879;19;1345;-71
2022/11/08 11:50:02;;;;;;;;;;;;;;;20.18;70.17;101432.84;7405430;19;1877;-70
2022/11/08 11:52:30;;;;;;;;;;;;;;;20.18;70.78;101416.72;7407273;19;1395;-71
2022/11/08 11:55:02;;;;;;;;;;;;;;;20.14;70.71;101426.88;7408183;19;1358;-72
2022/11/08 11:57:34;;;;;;;;;;;;;;;20.16;70.44;101427.59;7408424;19;1346;-71
2022/11/08 12:00:06;;;;;;;;;;;;;;;20.13;70.33;101419.78;7406492;19;1267;-71
2022/11/08 12:02:51;;;;;;;;;;;;;;;20.11;70.32;101423.56;7405373;19;1527;-69
2022/11/08 12:05:30;;;;;;;;;;;;;;;20.17;70.38;101412.31;7407266;19;986;-69
2022/11/08 12:08:06;;;;;;;;;;;;;;;20.14;70.43;101418.81;7405775;19;1386;-69
2022/11/08 12:10:43;;;;;;;;;;;;;;;20.19;70.10;101421.09;7406468;19;1857;-71
2022/11/08 12:13:17;;;;;;;;;;;;;;;20.16;70.21;101416.84;7405312;19;1060;-70
2022/11/08 12:15:49;;;;;;;;;;;;;;;20.19;70.04;101413.91;7402432;19;1230;-67
2022/11/08 12:18:29;;;;;;;;;;;;;;;20.23;69.71;101406.44;7396498;19;1049;-71
2022/11/08 12:21:01;;;;;;;;;;;;;;;20.28;69.81;101423.03;7405074;19;1299;-66
2022/11/08 12:23:38;;;;;;;;;;;;;;;20.28;69.29;101409.59;7405833;19;1424;-65
2022/11/08 12:26:16;;;;;;;;;;;;;;;20.35;69.74;101416.19;7403195;19;1384;-67
2022/11/08 12:28:49;;;;;;;;;;;;;;;20.35;69.45;101415.31;7405405;19;1396;-69
2022/11/08 12:31:23;;;;;;;;;;;;;;;20.37;69.77;101421.41;7404356;19;1850;-71
2022/11/08 12:33:56;;;;;;;;;;;;;;;20.40;69.35;101413.94;7406640;19;1572;-69
2022/11/08 12:36:29;;;;;;;;;;;;;;;20.45;69.33;101414.41;7405925;19;1327;-65
2022/11/08 12:39:04;;;;;;;;;;;;;;;20.48;69.05;101418.69;7405803;19;1517;-66
2022/11/08 12:41:41;;;;;;;;;;;;;;;20.57;69.56;101420.59;7403438;19;1416;-68
2022/11/08 12:44:18;;;;;;;;;;;;;;;20.50;69.48;101418.56;7401193;19;1587;-65
2022/11/08 12:46:54;;;;;;;;;;;;;;;20.49;69.68;101406.94;7404696;19;1444;-62
2022/11/08 12:49:32;;;;;;;;;;;;;;;20.52;69.39;101403.16;7406898;19;1871;-68
2022/11/08 12:52:06;;;;;;;;;;;;;;;20.57;69.58;101393.72;7406883;19;1457;-67
2022/11/08 12:54:37;;;;;;;;;;;;;;;20.49;69.16;101411.47;7406001;19;1314;-68
2022/11/08 12:57:12;;;;;;;;;;;;;;;20.49;69.67;101420.38;7406057;19;1663;-68
2022/11/08 12:59:41;;;;;;;;;;;;;;;20.45;69.43;101410.84;7406344;19;1105;-69
2022/11/08 13:02:16;;;;;;;;;;;;;;;20.50;69.63;101418.56;7403991;19;1679;-66
2022/11/08 13:04:49;;;;;;;;;;;;;;;20.46;69.08;101408.06;7404816;19;1382;-66
2022/11/08 13:07:23;;;;;;;;;;;;;;;20.52;69.38;101406.69;7406278;19;1330;-66
2022/11/08 13:09:54;;;;;;;;;;;;;;;20.52;69.24;101412.06;7403863;19;1828;-60
2022/11/08 13:12:38;;;;;;;;;;;;;;;20.51;69.81;101413.03;7405225;19;1238;-59
2022/11/08 13:15:16;;;;;;;;;;;;;;;20.52;69.49;101412.06;7405394;19;1291;-60
2022/11/08 13:18:04;;;;;;;;;;;;;;;20.54;68.91;101418.16;7404410;19;1659;-63
2022/11/08 13:20:39;;;;;;;;;;;;;;;20.55;70.21;101427.06;7401917;19;1569;-61
2022/11/08 13:23:12;;;;;;;;;;;;;;;20.52;69.49;101401.31;7402567;19;1654;-66
2022/11/08 13:25:41;;;;;;;;;;;;;;;20.49;70.17;101412.31;7404927;19;1654;-63
2022/11/08 13:28:24;;;;;;;;;;;;;;;20.50;70.34;101416.72;7404116;19;1169;-59
2022/11/08 13:31:01;;;;;;;;;;;;;;;20.50;70.72;101384.47;7401675;19;1865;-60
2022/11/08 13:33:32;;;;;;;;;;;;;;;20.50;69.84;101411.34;7404975;19;1299;-62
2022/11/08 13:36:10;;;;;;;;;;;;;;;20.49;70.78;101406.94;7403306;19;1871;-61